Time;durP1;ratioP1;P1;durP2;ratioP2;P2;SDS_P1;SDS_P2;PMS_P1;PMS_P2;Temp;Humidity;BMP_temperature;BMP_pressure;BME280_temperature;BME280_humidity;BME280_pressure;Samples;Min_cycle;Max_cycle;Signal;HPM_P1;HPM_P2
2021/08/12 00:02:09;;;;;;;;;;;18.80;97.00;;;18.23;91.54;100921.66;5039517;28;19928;-79
2021/08/12 00:04:36;;;;;;;;;;;18.80;97.10;;;18.20;91.53;100919.38;5039075;28;20024;-79
2021/08/12 00:07:05;;;;;;;;;;;18.70;97.30;;;18.19;91.56;100912.16;5039014;28;20456;-79
2021/08/12 00:09:32;;;;;;;;;;;18.70;97.20;;;18.19;91.60;100919.59;5039042;28;19936;-79
2021/08/12 00:11:59;;;;;;;;;;;18.70;97.30;;;18.17;91.57;100914.28;5039219;28;20024;-79
2021/08/12 00:14:26;;;;;;;;;;;18.70;97.30;;;18.17;91.68;100906.03;5039399;28;19929;-79
2021/08/12 00:16:53;;;;;;;;;;;18.70;97.40;;;18.16;91.50;100901.56;5038622;28;20015;-79
2021/08/12 00:19:20;;;;;;;;;;;18.70;97.40;;;18.15;91.51;100902.66;5038968;28;19929;-79
2021/08/12 00:21:48;;;;;;;;;;;18.70;97.30;;;18.14;91.41;100909.22;5038899;28;19935;-79
2021/08/12 00:24:16;;;;;;;;;;;18.70;97.30;;;18.13;91.33;100908.41;5039006;28;19929;-79
2021/08/12 00:26:43;;;;;;;;;;;18.60;97.10;;;18.12;91.38;100914.13;5038851;28;19947;-79
2021/08/12 00:29:10;;;;;;;;;;;18.60;97.10;;;18.09;91.00;100911.84;5039032;28;19933;-79
2021/08/12 00:31:37;;;;;;;;;;;18.60;97.00;;;18.07;90.71;100901.03;5039073;28;20029;-79
2021/08/12 00:34:04;;;;;;;;;;;18.50;96.80;;;18.05;90.84;100911.44;5020392;28;19929;-79
2021/08/12 00:36:31;;;;;;;;;;;18.40;96.80;;;18.03;90.74;100904.44;5029163;28;19932;-79
2021/08/12 00:39:01;;;;;;;;;;;18.50;97.10;;;18.01;90.99;100918.47;5021291;28;19933;-79
2021/08/12 00:41:35;;;;;;;;;;;18.50;97.30;;;18.00;90.73;100913.19;5020761;28;20012;-79
2021/08/12 00:44:05;;;;;;;;;;;18.40;97.20;;;17.96;91.18;100912.78;5020858;28;19928;-79
2021/08/12 00:46:32;;;;;;;;;;;18.40;97.30;;;17.96;91.00;100919.13;5038831;28;20035;-78
2021/08/12 00:48:59;;;;;;;;;;;18.40;97.40;;;17.94;90.92;100915.75;5020944;28;19931;-79
2021/08/12 00:51:28;;;;;;;;;;;18.40;97.30;;;17.91;90.69;100910.69;5020512;28;19951;-79
2021/08/12 00:53:57;;;;;;;;;;;18.30;97.20;;;17.89;90.76;100912.81;5021072;28;20394;-79
2021/08/12 00:56:25;;;;;;;;;;;18.30;97.20;;;17.89;90.54;100910.06;5020357;28;20332;-79
2021/08/12 00:58:54;;;;;;;;;;;18.30;97.20;;;17.84;90.53;100914.50;5020622;28;19991;-79
2021/08/12 01:01:21;;;;;;;;;;;18.30;97.30;;;17.82;90.57;100902.88;5020390;28;19960;-79
2021/08/12 01:03:48;;;;;;;;;;;18.20;97.10;;;17.81;90.40;100903.97;5020418;28;19948;-79
2021/08/12 01:06:23;;;;;;;;;;;18.20;97.10;;;17.79;89.96;100893.16;5020286;28;20012;-79
2021/08/12 01:08:58;;;;;;;;;;;18.10;97.10;;;17.77;90.03;100896.13;5020633;28;20027;-79
2021/08/12 01:11:31;;;;;;;;;;;18.10;97.10;;;17.75;89.98;100889.19;5020773;28;19933;-79
2021/08/12 01:14:09;;;;;;;;;;;18.10;97.00;;;17.73;89.74;100894.06;5020667;28;20027;-79
2021/08/12 01:16:40;;;;;;;;;;;18.10;97.00;;;17.73;89.53;100888.56;5020461;28;20019;-79
2021/08/12 01:19:25;;;;;;;;;;;18.00;96.70;;;17.70;89.49;100900.00;5020022;28;19929;-79
2021/08/12 01:21:56;;;;;;;;;;;18.00;96.90;;;17.68;89.49;100899.38;5037979;28;19929;-79
2021/08/12 01:24:25;;;;;;;;;;;18.00;97.00;;;17.67;89.42;100912.31;5052872;28;20406;-79
2021/08/12 01:26:55;;;;;;;;;;;17.90;97.00;;;17.65;89.74;100905.31;5020206;28;20609;-79
2021/08/12 01:29:42;;;;;;;;;;;18.00;97.20;;;17.63;89.93;100902.81;5020069;28;19929;-79
2021/08/12 01:32:12;;;;;;;;;;;18.00;97.40;;;17.65;90.08;100899.81;5020110;28;20037;-79
2021/08/12 01:34:51;;;;;;;;;;;18.00;97.40;;;17.65;90.05;100899.81;5020061;28;19932;-79
2021/08/12 01:37:18;;;;;;;;;;;18.00;97.40;;;17.64;90.35;100895.41;5019673;28;19955;-79
2021/08/12 01:39:47;;;;;;;;;;;18.00;97.40;;;17.62;90.54;100894.78;5019952;28;20711;-79
2021/08/12 01:42:15;;;;;;;;;;;18.00;97.20;;;17.64;90.39;100906.41;5020177;28;20365;-79
2021/08/12 01:44:45;;;;;;;;;;;18.00;97.20;;;17.62;90.08;100894.78;5020170;28;19929;-79
2021/08/12 01:47:15;;;;;;;;;;;18.00;97.00;;;17.61;89.93;100901.34;5019722;28;19936;-79
2021/08/12 01:49:45;;;;;;;;;;;17.90;97.10;;;17.59;89.71;100891.41;5019730;28;19982;-79
2021/08/12 01:52:14;;;;;;;;;;;17.90;97.00;;;17.57;89.61;100895.44;5037499;28;19935;-79
2021/08/12 01:54:45;;;;;;;;;;;17.90;97.10;;;17.54;89.44;100893.97;5019743;28;19945;-79
2021/08/12 01:57:12;;;;;;;;;;;17.90;97.00;;;17.52;89.34;100887.84;5019914;28;20027;-79
2021/08/12 01:59:42;;;;;;;;;;;17.80;96.90;;;17.50;89.56;100884.47;5019661;28;20377;-79
2021/08/12 02:02:10;;;;;;;;;;;17.80;96.90;;;17.48;89.45;100889.38;5019827;28;19975;-79
2021/08/12 02:04:39;;;;;;;;;;;17.80;96.80;;;17.48;89.45;100877.53;5020096;28;20007;-79
2021/08/12 02:07:10;;;;;;;;;;;17.80;96.90;;;17.45;89.50;100870.53;5019590;28;19936;-79
2021/08/12 02:09:38;;;;;;;;;;;17.80;97.00;;;17.44;89.16;100877.13;5020216;28;20506;-79
2021/08/12 02:12:08;;;;;;;;;;;17.80;97.10;;;17.44;89.28;100868.84;5052442;28;19929;-79
2021/08/12 02:14:35;;;;;;;;;;;17.70;97.00;;;17.42;89.04;100867.38;5022052;28;19925;-79
2021/08/12 02:17:03;;;;;;;;;;;17.70;97.00;;;17.42;89.08;100868.25;5041443;28;19951;-79
2021/08/12 02:19:31;;;;;;;;;;;17.70;97.20;;;17.43;89.27;100869.91;5023332;28;20019;-79
2021/08/12 02:22:02;;;;;;;;;;;17.70;97.30;;;17.39;89.12;100863.16;5047829;28;19963;-79
2021/08/12 02:24:35;;;;;;;;;;;17.70;97.10;;;17.38;89.04;100870.59;5023260;28;19972;-79
2021/08/12 02:27:06;;;;;;;;;;;17.70;97.20;;;17.36;89.13;100866.34;5040594;28;20024;-78
2021/08/12 02:29:34;;;;;;;;;;;17.60;97.10;;;17.33;88.97;100869.56;5023594;28;19942;-79
2021/08/12 02:32:02;;;;;;;;;;;17.60;97.00;;;17.32;89.17;100871.44;5039644;28;19929;-79
2021/08/12 02:34:30;;;;;;;;;;;17.60;97.10;;;17.31;88.91;100871.69;5039696;28;19975;-79
2021/08/12 02:36:58;;;;;;;;;;;17.50;97.10;;;17.32;88.91;100868.69;5022883;28;19929;-79
2021/08/12 02:39:27;;;;;;;;;;;17.50;97.20;;;17.30;88.70;100870.00;5040955;28;20474;-79
2021/08/12 02:41:56;;;;;;;;;;;17.50;97.00;;;17.27;89.08;100865.78;5023620;28;20363;-79
2021/08/12 02:44:25;;;;;;;;;;;17.50;97.20;;;17.26;88.99;100866.00;5022874;28;20296;-79
2021/08/12 02:46:54;;;;;;;;;;;17.50;97.20;;;17.25;88.91;100869.81;5022553;28;19929;-78
2021/08/12 02:49:21;;;;;;;;;;;17.50;97.10;;;17.20;89.02;100865.81;5022983;28;20047;-78
2021/08/12 02:51:50;;;;;;;;;;;17.50;97.20;;;17.19;89.28;100868.78;5023186;28;19933;-79
2021/08/12 02:54:17;;;;;;;;;;;17.50;97.40;;;17.17;89.47;100871.75;5023326;28;20427;-79
2021/08/12 02:56:45;;;;;;;;;;;17.50;97.40;;;17.17;89.37;100866.25;5022935;28;19929;-79
2021/08/12 02:59:15;;;;;;;;;;;17.50;97.40;;;17.17;89.37;100863.50;5023199;28;19925;-79
2021/08/12 03:01:44;;;;;;;;;;;17.50;97.40;;;17.17;89.42;100869.03;5023290;28;20471;-79
2021/08/12 03:04:13;;;;;;;;;;;17.50;97.40;;;17.16;89.22;100869.22;5023304;28;19936;-79
2021/08/12 03:06:41;;;;;;;;;;;17.50;97.30;;;17.15;89.24;100868.41;5022644;28;19925;-79
2021/08/12 03:09:09;;;;;;;;;;;17.50;97.30;;;17.13;89.10;100876.00;5040416;28;20322;-79
2021/08/12 03:11:36;;;;;;;;;;;17.50;97.40;;;17.14;89.23;100877.69;5040613;28;19975;-79
2021/08/12 03:14:04;;;;;;;;;;;17.40;97.20;;;17.12;89.29;100874.31;5022546;28;20019;-79
2021/08/12 03:16:31;;;;;;;;;;;17.40;97.30;;;17.11;89.02;100875.38;5022417;28;20453;-79
2021/08/12 03:19:00;;;;;;;;;;;17.40;97.20;;;17.10;89.07;100870.94;5022766;28;19929;-79
2021/08/12 03:21:29;;;;;;;;;;;17.40;97.20;;;17.10;89.31;100867.38;5022977;28;19932;-79
2021/08/12 03:24:01;;;;;;;;;;;17.40;97.40;;;17.07;89.11;100865.88;5022655;28;20355;-79
2021/08/12 03:26:28;;;;;;;;;;;17.30;97.40;;;17.07;89.14;100865.88;5021877;28;19933;-79
2021/08/12 03:28:55;;;;;;;;;;;17.30;97.20;;;17.07;89.02;100860.38;5022475;28;19928;-79
2021/08/12 03:31:22;;;;;;;;;;;17.40;97.30;;;17.07;88.86;100859.53;5040086;28;20037;-79
2021/08/12 03:33:49;;;;;;;;;;;17.30;97.10;;;17.04;88.62;100865.47;5022473;28;20031;-79
2021/08/12 03:36:18;;;;;;;;;;;17.30;97.30;;;17.04;89.16;100855.34;5021992;28;19936;-79
2021/08/12 03:38:45;;;;;;;;;;;17.30;97.50;;;17.03;88.97;100858.28;5022214;28;20027;-79
2021/08/12 03:41:13;;;;;;;;;;;17.30;97.30;;;17.02;88.84;100857.47;5021903;28;19935;-79
2021/08/12 03:43:40;;;;;;;;;;;17.20;97.20;;;16.99;88.51;100852.38;5055234;28;19936;-78
2021/08/12 03:46:07;;;;;;;;;;;17.30;97.10;;;16.98;88.73;100842.44;5022227;28;20745;-79
2021/08/12 03:48:36;;;;;;;;;;;17.30;97.30;;;16.97;88.71;100847.09;5021924;28;20011;-79
2021/08/12 03:51:03;;;;;;;;;;;17.30;97.20;;;16.96;88.70;100847.31;5021660;28;20019;-78
2021/08/12 03:53:32;;;;;;;;;;;17.20;97.10;;;16.96;88.59;100847.31;5021846;28;20388;-79
2021/08/12 03:56:00;;;;;;;;;;;17.20;97.20;;;16.94;88.43;100855.78;5021637;28;20345;-79
2021/08/12 03:58:28;;;;;;;;;;;17.20;97.10;;;16.95;88.34;100859.38;5021720;28;20019;-79
2021/08/12 04:00:55;;;;;;;;;;;17.10;97.00;;;16.92;88.47;100868.06;5021625;28;19940;-79
2021/08/12 04:03:22;;;;;;;;;;;17.20;97.10;;;16.92;88.17;100859.81;5021192;28;20580;-79
2021/08/12 04:05:49;;;;;;;;;;;17.10;97.00;;;16.91;88.29;100878.22;5021594;28;19971;-79
2021/08/12 04:08:17;;;;;;;;;;;17.10;97.10;;;16.89;88.40;100874.84;5021659;28;19928;-79
2021/08/12 04:10:45;;;;;;;;;;;17.10;97.20;;;16.85;88.71;100879.09;5021157;28;20388;-79
2021/08/12 04:13:12;;;;;;;;;;;17.10;97.20;;;16.85;88.66;100879.09;5039128;28;20376;-79
2021/08/12 04:15:40;;;;;;;;;;;17.10;97.30;;;16.86;88.70;100880.78;5039462;28;19929;-79
2021/08/12 04:18:07;;;;;;;;;;;17.10;97.10;;;16.85;88.69;100884.59;5021067;28;19925;-79
2021/08/12 04:20:34;;;;;;;;;;;17.20;97.10;;;16.86;88.61;100885.44;5021791;28;19929;-79
2021/08/12 04:23:01;;;;;;;;;;;17.10;97.00;;;16.84;88.66;100887.56;5021492;28;19932;-79
2021/08/12 04:25:28;;;;;;;;;;;17.10;97.10;;;16.86;88.60;100890.94;5021712;28;19979;-79
2021/08/12 04:27:56;;;;;;;;;;;17.20;97.00;;;16.84;88.63;100888.41;5038759;28;20369;-79
2021/08/12 04:30:24;;;;;;;;;;;17.20;97.00;;;16.84;88.83;100887.56;5021068;28;19928;-79
2021/08/12 04:32:51;;;;;;;;;;;17.20;97.00;;;16.84;88.94;100893.06;5021275;28;19960;-79
2021/08/12 04:35:18;;;;;;;;;;;17.20;97.10;;;16.84;89.24;100873.81;5021580;28;19929;-79
2021/08/12 04:37:45;;;;;;;;;;;17.20;97.20;;;16.84;89.20;100866.41;5019319;28;19929;-78
2021/08/12 04:40:14;;;;;;;;;;;17.20;97.10;;;16.84;89.33;100866.41;5038808;28;20008;-79
2021/08/12 04:42:42;;;;;;;;;;;17.20;97.10;;;16.87;89.35;100865.13;5021031;28;19987;-78
2021/08/12 04:45:11;;;;;;;;;;;17.30;97.10;;;16.87;89.41;100865.97;5020869;28;20536;-79
2021/08/12 04:47:38;;;;;;;;;;;17.30;97.00;;;16.89;89.52;100876.75;5020534;28;19928;-79
2021/08/12 04:50:06;;;;;;;;;;;17.40;96.60;;;16.89;89.78;100876.75;5021112;28;19979;-78
2021/08/12 04:52:33;;;;;;;;;;;17.50;96.60;;;16.90;89.57;100881.19;5039360;28;20465;-79
2021/08/12 04:55:00;;;;;;;;;;;17.50;96.30;;;16.90;89.68;100889.44;5021057;28;20292;-81
2021/08/12 04:57:28;;;;;;;;;;;17.50;96.40;;;16.90;90.00;100898.50;5020453;28;20745;-81
2021/08/12 04:59:55;;;;;;;;;;;17.50;96.60;;;16.92;89.90;100896.38;5038869;28;19925;-81
2021/08/12 05:02:24;;;;;;;;;;;17.60;96.60;;;16.94;89.93;100890.69;5021198;28;19925;-82
2021/08/12 05:04:51;;;;;;;;;;;17.60;96.40;;;16.96;89.80;100885.81;5020874;28;20015;-82
2021/08/12 05:07:18;;;;;;;;;;;17.60;96.20;;;16.97;90.08;100882.00;5038169;28;19983;-81
2021/08/12 05:09:47;;;;;;;;;;;17.70;96.20;;;16.98;90.11;100886.44;5020605;28;20440;-81
2021/08/12 05:12:18;;;;;;;;;;;17.80;95.80;;;17.00;90.41;100887.91;5020573;28;19952;-81
2021/08/12 05:14:45;;;;;;;;;;;17.90;95.50;;;17.02;90.29;100887.72;5038629;28;19932;-81
2021/08/12 05:17:12;;;;;;;;;;;17.90;95.10;;;17.04;90.16;100888.34;5038106;28;19976;-82
2021/08/12 05:19:43;;;;;;;;;;;18.00;94.90;;;17.06;90.20;100890.84;5020586;28;19928;-81
2021/08/12 05:22:10;;;;;;;;;;;18.00;94.90;;;17.06;90.26;100902.72;5020688;28;19956;-81
2021/08/12 05:24:37;;;;;;;;;;;18.00;94.90;;;17.08;90.26;100897.81;5020517;28;20348;-81
2021/08/12 05:27:06;;;;;;;;;;;18.00;94.90;;;17.08;90.23;100894.25;5019864;28;20393;-81
2021/08/12 05:29:34;;;;;;;;;;;18.00;95.00;;;17.08;90.16;100900.56;5038121;28;20059;-81
2021/08/12 05:32:01;;;;;;;;;;;18.00;95.30;;;17.09;90.26;100907.75;5038236;28;19933;-81
2021/08/12 05:34:29;;;;;;;;;;;17.90;95.40;;;17.11;90.24;100894.63;5020616;28;19929;-81
2021/08/12 05:36:59;;;;;;;;;;;18.00;95.40;;;17.13;90.30;100894.41;5020021;28;19929;-81
2021/08/12 05:39:26;;;;;;;;;;;18.10;95.30;;;17.16;90.59;100903.06;5020247;28;19964;-82
2021/08/12 05:41:53;;;;;;;;;;;18.20;94.90;;;17.22;90.74;100906.84;5019829;28;19979;-81
2021/08/12 05:44:21;;;;;;;;;;;18.30;94.70;;;17.25;90.80;100908.31;5020365;28;19929;-82
2021/08/12 05:46:48;;;;;;;;;;;18.50;94.10;;;17.28;90.72;100900.47;5019936;28;19951;-82
2021/08/12 05:49:15;;;;;;;;;;;18.60;93.60;;;17.32;90.92;100901.72;5056399;28;19987;-81
2021/08/12 05:51:42;;;;;;;;;;;18.70;93.20;;;17.36;90.95;100910.38;5024172;28;19934;-83
2021/08/12 05:54:11;;;;;;;;;;;18.90;92.70;;;17.42;90.96;100897.63;5032288;28;19929;-82
2021/08/12 05:56:38;;;;;;;;;;;18.90;92.70;;;17.43;91.22;100897.44;5024000;28;19975;-83
2021/08/12 05:59:05;;;;;;;;;;;18.90;93.00;;;17.46;91.66;100897.00;5023421;28;19986;-80
2021/08/12 06:01:33;;;;;;;;;;;18.90;93.50;;;17.48;91.69;100896.78;5041597;28;19932;-80
2021/08/12 06:04:01;;;;;;;;;;;18.90;93.70;;;17.49;91.62;100896.53;5023725;28;19925;-81
2021/08/12 06:06:30;;;;;;;;;;;18.90;93.60;;;17.53;91.71;100881.25;5023859;28;19935;-80
2021/08/12 06:08:58;;;;;;;;;;;19.10;93.20;;;17.60;91.83;100892.25;5023505;28;20015;-80
2021/08/12 06:11:27;;;;;;;;;;;19.20;92.30;;;17.63;92.63;100893.69;5022395;28;19959;-80
2021/08/12 06:13:54;;;;;;;;;;;19.40;92.50;;;17.68;92.71;100891.13;5023716;28;19929;-81
2021/08/12 06:16:22;;;;;;;;;;;19.50;91.80;;;17.72;93.02;100895.97;5022431;28;19991;-81
2021/08/12 06:18:49;;;;;;;;;;;19.60;91.80;;;17.77;93.74;100898.06;5022502;28;19928;-81
2021/08/12 06:21:16;;;;;;;;;;;19.70;92.00;;;17.84;93.86;100904.41;5022795;28;19966;-82
2021/08/12 06:23:43;;;;;;;;;;;19.90;92.00;;;17.90;93.96;100895.25;5023879;28;20389;-81
2021/08/12 06:26:12;;;;;;;;;;;20.00;91.40;;;17.98;94.85;100896.88;5019628;28;19995;-80
2021/08/12 06:28:41;;;;;;;;;;;20.40;90.70;;;18.08;94.69;100893.59;5023051;28;19940;-82
2021/08/12 06:31:09;;;;;;;;;;;20.80;89.40;;;18.17;94.56;100892.25;5023606;28;20651;-84
2021/08/12 06:33:36;;;;;;;;;;;21.10;88.00;;;18.23;96.65;100887.75;5022432;28;20401;-81
2021/08/12 06:36:04;;;;;;;;;;;21.10;88.90;;;18.26;96.35;100896.41;5023551;28;19925;-81
2021/08/12 06:38:32;;;;;;;;;;;21.10;89.20;;;18.29;96.19;100895.94;5022438;28;19928;-81
2021/08/12 06:40:59;;;;;;;;;;;21.00;89.10;;;18.35;96.07;100895.06;5040723;28;19965;-80
2021/08/12 06:43:29;;;;;;;;;;;21.00;89.00;;;18.39;95.77;100889.06;5023525;28;19972;-81
2021/08/12 06:46:01;;;;;;;;;;;21.00;89.10;;;18.44;96.15;100889.25;5022628;28;19928;-79
2021/08/12 06:48:33;;;;;;;;;;;21.10;89.30;;;18.47;96.53;100889.63;5022078;28;19929;-79
2021/08/12 06:51:00;;;;;;;;;;;21.20;89.30;;;18.54;95.80;100900.59;5047314;28;19929;-79
2021/08/12 06:53:27;;;;;;;;;;;21.30;88.60;;;18.61;95.95;100898.59;5022922;28;20586;-79
2021/08/12 06:55:54;;;;;;;;;;;21.40;88.60;;;18.67;96.09;100888.56;5021917;28;19928;-79
2021/08/12 06:58:22;;;;;;;;;;;21.50;88.30;;;18.70;95.87;100885.38;5040592;28;19932;-79
2021/08/12 07:00:49;;;;;;;;;;;21.40;88.30;;;18.72;95.83;100889.56;5022409;28;19932;-79
2021/08/12 07:03:17;;;;;;;;;;;21.30;88.70;;;18.74;95.09;100887.44;5022373;28;19935;-79
2021/08/12 07:05:45;;;;;;;;;;;21.20;88.60;;;18.75;95.64;100891.88;5022173;28;19928;-79
2021/08/12 07:08:12;;;;;;;;;;;21.20;89.60;;;18.78;95.75;100889.72;5022118;28;20020;-79
2021/08/12 07:10:40;;;;;;;;;;;21.10;90.00;;;18.81;95.66;100894.81;5022757;28;19929;-79
2021/08/12 07:13:08;;;;;;;;;;;21.00;90.30;;;18.81;96.48;100897.56;5022793;28;19924;-79
2021/08/12 07:15:35;;;;;;;;;;;21.10;91.20;;;18.82;97.17;100902.84;5021878;28;20394;-79
2021/08/12 07:18:03;;;;;;;;;;;21.10;91.90;;;18.87;97.56;100910.47;5020837;28;19932;-79
2021/08/12 07:20:35;;;;;;;;;;;21.10;91.90;;;18.93;97.70;100906.78;5021128;28;20703;-79
2021/08/12 07:23:03;;;;;;;;;;;21.30;91.60;;;18.99;97.38;100905.84;5038527;28;20012;-79
2021/08/12 07:25:30;;;;;;;;;;;21.40;90.70;;;19.07;98.30;100902.75;5020983;28;19963;-79
2021/08/12 07:27:57;;;;;;;;;;;21.60;90.20;;;19.23;99.24;100906.81;5028953;28;20448;-79
2021/08/12 07:30:25;;;;;;;;;;;21.80;90.30;;;19.30;98.51;100906.72;5022467;28;19983;-79
2021/08/12 07:32:52;;;;;;;;;;;22.00;89.50;;;19.38;98.04;100905.53;5021855;28;20377;-79
2021/08/12 07:35:21;;;;;;;;;;;22.10;89.00;;;19.50;98.89;100901.75;5029855;28;19958;-79
2021/08/12 07:37:50;;;;;;;;;;;22.20;89.40;;;19.63;97.75;100900.72;5021832;28;19929;-79
2021/08/12 07:40:18;;;;;;;;;;;22.20;88.80;;;19.66;95.90;100907.69;5020753;28;20396;-82
2021/08/12 07:42:45;;;;;;;;;;;22.20;88.00;;;19.71;97.08;100910.59;5020624;28;19940;-83
2021/08/12 07:45:12;;;;;;;;;;;22.30;88.80;;;19.80;93.74;100911.97;5021726;28;19982;-83
2021/08/12 07:47:41;;;;;;;;;;;22.40;87.10;;;19.87;95.66;100901.66;5021018;28;20463;-83
2021/08/12 07:50:11;;;;;;;;;;;22.40;87.80;;;20.01;97.48;100901.44;5028110;28;19935;-83
2021/08/12 07:52:39;;;;;;;;;;;22.60;88.90;;;20.10;94.69;100902.78;5039121;28;19929;-84
2021/08/12 07:55:10;;;;;;;;;;;22.70;87.20;;;20.19;94.98;100898.59;5039815;28;19929;-84
2021/08/12 07:57:37;;;;;;;;;;;22.80;87.30;;;20.19;93.48;100898.59;5039458;28;19929;-84
2021/08/12 08:00:06;;;;;;;;;;;22.80;86.30;;;20.14;90.13;100894.84;5039537;28;20394;-84
2021/08/12 08:02:45;;;;;;;;;;;22.80;84.80;;;20.12;90.71;100908.91;5039520;28;20405;-84
2021/08/12 08:05:15;;;;;;;;;;;22.70;85.10;;;20.13;92.19;100901.47;5037217;28;20013;-84
2021/08/12 08:07:42;;;;;;;;;;;22.70;85.90;;;20.10;91.71;100900.00;5039069;28;20467;-85
2021/08/12 08:10:11;;;;;;;;;;;22.60;85.80;;;20.13;93.86;100907.00;5039181;28;19933;-84
2021/08/12 08:12:40;;;;;;;;;;;22.60;86.80;;;20.14;92.51;100900.38;5038237;28;20655;-84
2021/08/12 08:15:08;;;;;;;;;;;22.70;86.40;;;20.15;92.20;100899.31;5039519;28;19929;-84
2021/08/12 08:17:35;;;;;;;;;;;22.70;86.20;;;20.18;94.12;100896.91;5038485;28;20362;-84
2021/08/12 08:20:02;;;;;;;;;;;22.70;87.10;;;20.19;93.86;100908.81;5039222;28;19987;-84
2021/08/12 08:22:30;;;;;;;;;;;22.70;87.00;;;20.19;93.54;100914.31;5039493;28;20015;-84
2021/08/12 08:24:57;;;;;;;;;;;22.70;86.80;;;20.18;91.27;100910.72;5021032;28;20424;-85
2021/08/12 08:27:25;;;;;;;;;;;22.70;85.60;;;20.21;91.16;100918.53;5039029;28;19994;-85
2021/08/12 08:29:52;;;;;;;;;;;22.70;85.40;;;20.21;89.44;100913.00;5038881;28;20011;-78
2021/08/12 08:32:20;;;;;;;;;;;22.70;84.70;;;20.24;88.10;100912.53;5038563;28;19929;-78
2021/08/12 08:34:47;;;;;;;;;;;22.70;84.00;;;20.29;88.18;100918.16;5038935;28;19964;-79
2021/08/12 08:37:14;;;;;;;;;;;22.70;84.00;;;20.37;85.19;100921.66;5038831;28;19935;-79
2021/08/12 08:39:41;;;;;;;;;;;22.80;81.60;;;20.45;85.87;100918.56;5053297;28;20427;-78
2021/08/12 08:42:11;;;;;;;;;;;22.90;82.40;;;20.55;85.76;100913.25;5038752;28;20418;-79
2021/08/12 08:44:42;;;;;;;;;;;23.00;82.40;;;20.61;83.24;100911.47;5038662;28;20445;-79
2021/08/12 08:47:10;;;;;;;;;;;23.00;81.40;;;20.68;88.09;100924.09;5038010;28;19933;-79
2021/08/12 08:49:39;;;;;;;;;;;23.10;83.70;;;20.80;88.88;100921.31;5038479;28;19936;-78
2021/08/12 08:52:10;;;;;;;;;;;23.20;84.30;;;20.87;87.07;100921.19;5038209;28;20313;-79
2021/08/12 08:54:39;;;;;;;;;;;23.30;82.80;;;20.91;87.13;100922.38;5037970;28;20039;-79
2021/08/12 08:57:07;;;;;;;;;;;23.40;82.80;;;20.97;84.92;100921.41;5037536;28;20405;-78
2021/08/12 08:59:35;;;;;;;;;;;23.40;81.40;;;21.02;82.84;100918.75;5020099;28;20029;-79
2021/08/12 09:02:04;;;;;;;;;;;23.50;79.80;;;21.08;83.01;100928.84;5038189;28;19928;-79
2021/08/12 09:04:32;;;;;;;;;;;23.60;79.80;;;21.11;83.54;100932.19;5038099;28;19928;-79
2021/08/12 09:07:00;;;;;;;;;;;23.60;80.00;;;21.09;82.13;100933.31;5036550;28;20396;-80
2021/08/12 09:09:27;;;;;;;;;;;23.60;79.40;;;21.10;82.82;100936.91;5038277;28;19964;-79
2021/08/12 09:11:54;;;;;;;;;;;23.60;79.70;;;21.14;82.49;100932.56;5036106;28;20041;-79
2021/08/12 09:14:31;;;;;;;;;;;23.70;79.70;;;21.25;87.54;100926.16;5037582;28;19929;-80
2021/08/12 09:16:59;;;;;;;;;;;23.70;82.90;;;21.32;87.12;100916.84;5037539;28;19932;-80
2021/08/12 09:19:27;;;;;;;;;;;23.70;82.40;;;21.32;84.77;100926.00;5038417;28;19994;-80
2021/08/12 09:21:55;;;;;;;;;;;23.80;81.40;;;21.32;84.92;100934.28;5038022;28;20309;-80
2021/08/12 09:24:22;;;;;;;;;;;23.80;81.30;;;21.42;87.60;100919.84;5037698;28;19929;-80
2021/08/12 09:26:50;;;;;;;;;;;23.80;83.40;;;21.38;85.00;100921.41;5037912;28;19959;-80
2021/08/12 09:29:28;;;;;;;;;;;23.80;81.00;;;21.39;85.69;100926.69;5033832;28;19929;-80
2021/08/12 09:31:57;;;;;;;;;;;23.80;81.20;;;21.48;83.38;100919.72;5033264;28;20027;-80
2021/08/12 09:34:39;;;;;;;;;;;23.90;81.00;;;21.52;85.65;100927.53;5036708;28;21678;-80
2021/08/12 09:37:08;;;;;;;;;;;23.90;81.80;;;21.55;85.23;100925.13;5037599;28;20027;-80
2021/08/12 09:39:35;;;;;;;;;;;23.90;81.80;;;21.66;86.27;100923.34;5037535;28;20301;-80
2021/08/12 09:42:03;;;;;;;;;;;24.00;82.30;;;21.64;84.16;100931.91;5038114;28;20344;-80
2021/08/12 09:44:39;;;;;;;;;;;24.00;81.20;;;21.67;83.96;100925.06;5038098;28;20472;-80
2021/08/12 09:47:08;;;;;;;;;;;24.10;81.20;;;21.71;83.73;100929.00;5037529;28;19928;-79
2021/08/12 09:49:41;;;;;;;;;;;24.10;80.90;;;21.72;82.92;100913.22;5037261;28;19979;-80
2021/08/12 09:52:26;;;;;;;;;;;24.10;80.50;;;21.76;80.94;100917.16;5036616;28;20031;-80
2021/08/12 09:54:59;;;;;;;;;;;24.10;80.10;;;21.73;83.32;100912.13;5020044;28;20562;-80
2021/08/12 09:57:26;;;;;;;;;;;24.10;80.70;;;21.85;82.18;100921.22;5036930;28;20405;-80
2021/08/12 09:59:56;;;;;;;;;;;24.10;80.00;;;21.90;82.57;100912.16;5037229;28;19935;-80
2021/08/12 10:02:23;;;;;;;;;;;24.10;80.70;;;21.84;81.66;100914.00;5036987;28;20034;-80
2021/08/12 10:05:04;;;;;;;;;;;24.20;79.80;;;21.85;82.66;100916.50;5037186;28;19928;-81
2021/08/12 10:07:42;;;;;;;;;;;24.20;79.60;;;21.84;79.63;100908.47;5036437;28;20015;-81
2021/08/12 10:10:19;;;;;;;;;;;24.10;78.10;;;21.78;81.40;100914.97;5037893;28;19960;-80
2021/08/12 10:12:49;;;;;;;;;;;24.10;79.00;;;21.85;80.13;100916.50;5036674;28;20256;-80
2021/08/12 10:15:17;;;;;;;;;;;24.10;78.80;;;21.90;82.49;100918.53;5037861;28;19929;-80
2021/08/12 10:17:45;;;;;;;;;;;24.20;80.50;;;21.99;78.61;100916.19;5037289;28;19983;-81
2021/08/12 10:20:17;;;;;;;;;;;24.20;77.90;;;21.99;76.20;100916.19;5036776;28;19983;-80
2021/08/12 10:22:46;;;;;;;;;;;24.20;76.20;;;22.02;77.65;100916.50;5037503;28;19972;-80
2021/08/12 10:25:14;;;;;;;;;;;24.20;77.60;;;22.02;79.52;100905.44;5037208;28;20388;-80
2021/08/12 10:27:42;;;;;;;;;;;24.20;78.00;;;21.98;81.10;100904.25;5036701;28;20101;-80
2021/08/12 10:30:11;;;;;;;;;;;24.20;78.30;;;22.02;82.54;100902.66;5018603;28;20492;-80
2021/08/12 10:32:41;;;;;;;;;;;24.30;79.70;;;22.17;79.03;100901.25;5036785;28;19935;-82
2021/08/12 10:35:09;;;;;;;;;;;24.30;78.20;;;22.09;76.67;100912.75;5038471;28;20098;-81
2021/08/12 10:37:38;;;;;;;;;;;24.30;76.50;;;22.02;75.91;100904.59;5040437;28;19959;-81
2021/08/12 10:40:08;;;;;;;;;;;24.30;75.70;;;22.05;80.27;100898.56;5040578;28;19980;-81
2021/08/12 10:42:38;;;;;;;;;;;24.40;78.10;;;22.12;77.11;100899.22;5039958;28;19972;-82
2021/08/12 10:45:06;;;;;;;;;;;24.40;76.30;;;22.08;75.98;100903.59;5041171;28;20370;-81
2021/08/12 10:47:47;;;;;;;;;;;24.40;76.30;;;22.16;75.43;100894.88;5040382;28;19935;-81
2021/08/12 10:50:37;;;;;;;;;;;24.50;75.20;;;22.14;75.22;100897.06;5040917;28;19928;-81
2021/08/12 10:53:20;;;;;;;;;;;24.50;75.10;;;22.18;75.86;100892.69;5040830;28;20014;-81
2021/08/12 10:56:07;;;;;;;;;;;24.50;74.60;;;22.11;73.53;100894.78;5040402;28;20455;-81
2021/08/12 10:58:54;;;;;;;;;;;24.50;73.80;;;22.10;74.80;100895.03;5040108;28;20488;-81
2021/08/12 11:01:29;;;;;;;;;;;24.50;74.00;;;22.16;73.07;100899.53;5040344;28;20458;-81
2021/08/12 11:04:00;;;;;;;;;;;24.50;73.00;;;22.16;72.38;100899.53;5040208;28;19935;-79
2021/08/12 11:06:36;;;;;;;;;;;24.50;72.30;;;22.14;73.79;100891.50;5022163;28;20460;-79
2021/08/12 11:09:08;;;;;;;;;;;24.50;73.50;;;22.11;71.88;100892.00;5040069;28;20024;-79
2021/08/12 11:12:03;;;;;;;;;;;24.50;72.30;;;22.07;71.60;100890.84;5040567;28;19928;-79
2021/08/12 11:14:58;;;;;;;;;;;24.50;72.20;;;22.05;70.84;100898.56;5040533;28;19936;-79
2021/08/12 11:17:26;;;;;;;;;;;24.50;70.40;;;22.09;69.59;100899.72;5040326;28;20381;-80
2021/08/12 11:19:55;;;;;;;;;;;24.50;70.00;;;22.10;71.07;100900.56;5039963;28;19928;-80